createdAt,value
2018-04-22T00:01:37.278Z,16.10
2018-04-22T00:04:05.312Z,16.10
2018-04-22T00:06:33.365Z,16.00
2018-04-22T00:09:01.423Z,16.00
2018-04-22T00:11:29.503Z,16.00
2018-04-22T00:13:57.567Z,16.00
2018-04-22T00:16:25.649Z,15.90
2018-04-22T00:18:53.691Z,15.90
2018-04-22T00:21:21.743Z,15.90
2018-04-22T00:23:49.786Z,15.90
2018-04-22T00:26:17.827Z,15.80
2018-04-22T00:28:45.881Z,15.80
2018-04-22T00:31:13.930Z,15.80
2018-04-22T00:33:42.062Z,15.70
2018-04-22T00:36:10.147Z,15.70
2018-04-22T00:38:38.976Z,15.70
2018-04-22T00:41:07.019Z,15.70
2018-04-22T00:43:35.113Z,15.60
2018-04-22T00:46:03.922Z,15.50
2018-04-22T00:48:32.006Z,15.50
2018-04-22T00:51:00.064Z,15.40
2018-04-22T00:53:28.175Z,15.40
2018-04-22T00:55:56.222Z,15.30
2018-04-22T00:58:24.295Z,15.30
2018-04-22T01:00:52.358Z,15.20
2018-04-22T01:03:20.410Z,15.20
2018-04-22T01:05:48.450Z,15.20
2018-04-22T01:08:17.326Z,15.20
2018-04-22T01:10:46.149Z,15.20
2018-04-22T01:13:14.234Z,15.10
2018-04-22T01:15:42.334Z,15.20
2018-04-22T01:18:10.377Z,15.20
2018-04-22T01:20:38.406Z,15.10
2018-04-22T01:23:07.222Z,15.10
2018-04-22T01:25:35.318Z,15.10
2018-04-22T01:28:03.362Z,15.10
2018-04-22T01:30:31.453Z,15.00
2018-04-22T01:32:59.531Z,15.00
2018-04-22T01:35:27.620Z,15.00
2018-04-22T01:37:55.698Z,15.00
2018-04-22T01:40:23.775Z,15.00
2018-04-22T01:42:51.862Z,15.00
2018-04-22T01:45:19.930Z,15.00
2018-04-22T01:47:47.986Z,15.00
2018-04-22T01:50:16.086Z,14.90
2018-04-22T01:52:44.930Z,14.90
2018-04-22T01:55:13.014Z,14.90
2018-04-22T01:57:41.080Z,14.90
2018-04-22T02:00:32.173Z,14.80
2018-04-22T02:03:00.252Z,14.80
2018-04-22T02:05:28.343Z,14.80
2018-04-22T02:07:56.387Z,14.80
2018-04-22T02:10:25.588Z,14.80
2018-04-22T02:12:53.626Z,14.70
2018-04-22T02:15:21.666Z,14.70
2018-04-22T02:17:49.715Z,14.70
2018-04-22T02:20:17.778Z,14.70
2018-04-22T02:22:45.819Z,14.70
2018-04-22T02:25:13.869Z,14.80
2018-04-22T02:27:41.953Z,14.80
2018-04-22T02:30:09.995Z,14.80
2018-04-22T02:32:38.845Z,14.70
2018-04-22T02:35:06.934Z,14.70
2018-04-22T02:37:35.011Z,14.70
2018-04-22T02:40:03.868Z,14.60
2018-04-22T02:42:31.971Z,14.60
2018-04-22T02:45:00.050Z,14.60
2018-04-22T02:47:28.108Z,14.60
2018-04-22T02:49:56.172Z,14.60
2018-04-22T02:52:25.199Z,14.60
2018-04-22T02:54:54.054Z,14.50
2018-04-22T02:57:22.133Z,14.40
2018-04-22T02:59:50.199Z,14.40
2018-04-22T03:02:18.262Z,14.40
2018-04-22T03:04:46.302Z,14.40
2018-04-22T03:07:14.353Z,14.40
2018-04-22T03:09:43.197Z,14.40
2018-04-22T03:12:11.247Z,14.40
2018-04-22T03:14:39.323Z,14.40
2018-04-22T03:17:07.388Z,14.40
2018-04-22T03:19:35.435Z,14.40
2018-04-22T03:22:03.479Z,14.40
2018-04-22T03:24:31.549Z,14.40
2018-04-22T03:26:59.640Z,14.40
2018-04-22T03:29:28.495Z,14.40
2018-04-22T03:31:56.581Z,14.30
2018-04-22T03:34:24.658Z,14.40
2018-04-22T03:36:52.734Z,14.30
2018-04-22T03:39:21.594Z,14.20
2018-04-22T03:41:49.677Z,14.20
2018-04-22T03:44:17.765Z,14.20
2018-04-22T03:46:46.630Z,14.30
2018-04-22T03:49:14.698Z,14.20
2018-04-22T03:51:42.780Z,14.20
2018-04-22T03:54:10.861Z,14.20
2018-04-22T03:56:39.709Z,14.20
2018-04-22T03:59:07.775Z,14.20
2018-04-22T04:01:35.832Z,14.30
2018-04-22T04:04:03.908Z,14.30
2018-04-22T04:06:31.977Z,14.20
2018-04-22T04:09:00.069Z,14.20
2018-04-22T04:11:28.115Z,14.10
2018-04-22T04:13:56.191Z,14.10
2018-04-22T04:16:24.281Z,14.10
2018-04-22T04:19:04.069Z,14.10
2018-04-22T04:21:44.053Z,14.10
2018-04-22T04:27:23.539Z,14.10
2018-04-22T04:29:51.590Z,14.00
2018-04-22T04:32:19.658Z,14.00
2018-04-22T04:34:47.747Z,14.00
2018-04-22T04:37:15.833Z,14.00
2018-04-22T04:39:43.917Z,13.90
2018-04-22T04:42:11.978Z,13.90
2018-04-22T04:44:40.066Z,13.90
2018-04-22T04:47:08.130Z,13.90
2018-04-22T04:49:36.169Z,13.90
2018-04-22T04:52:04.263Z,14.00
2018-04-22T04:54:32.322Z,14.00
2018-04-22T04:57:00.394Z,14.00
2018-04-22T04:59:28.525Z,14.00
2018-04-22T05:01:56.569Z,14.00
2018-04-22T05:04:24.641Z,14.00
2018-04-22T05:06:52.695Z,14.00
2018-04-22T05:09:20.741Z,14.10
2018-04-22T05:11:48.789Z,14.10
2018-04-22T05:14:16.846Z,14.10
2018-04-22T05:16:44.921Z,14.10
2018-04-22T05:19:12.989Z,14.10
2018-04-22T05:21:41.062Z,14.10
2018-04-22T05:24:09.117Z,14.20
2018-04-22T05:26:37.954Z,14.30
2018-04-22T05:29:06.842Z,14.30
2018-04-22T05:31:34.901Z,14.30
2018-04-22T05:34:02.958Z,14.30
2018-04-22T05:36:31.817Z,14.40
2018-04-22T05:39:00.640Z,14.40
2018-04-22T05:41:28.694Z,14.40
2018-04-22T05:43:56.755Z,14.40
2018-04-22T05:46:24.825Z,14.40
2018-04-22T05:48:52.894Z,14.50
2018-04-22T05:51:20.950Z,14.60
2018-04-22T05:53:49.014Z,14.60
2018-04-22T05:56:17.086Z,14.60
2018-04-22T05:58:45.147Z,14.70
2018-04-22T06:01:13.996Z,14.80
2018-04-22T06:03:42.057Z,14.70
2018-04-22T06:06:10.141Z,14.80
2018-04-22T06:08:38.266Z,14.90
2018-04-22T06:11:06.278Z,14.90
2018-04-22T06:13:34.370Z,15.00
2018-04-22T06:16:02.430Z,15.00
2018-04-22T06:18:30.502Z,15.00
2018-04-22T06:20:58.577Z,15.10
2018-04-22T06:23:26.632Z,15.10
2018-04-22T06:25:54.674Z,15.10
2018-04-22T06:28:22.746Z,15.00
2018-04-22T06:30:50.790Z,15.10
2018-04-22T06:33:18.874Z,15.10
2018-04-22T06:35:46.942Z,15.20
2018-04-22T06:38:15.014Z,15.20
2018-04-22T06:40:43.090Z,15.20
2018-04-22T06:43:11.139Z,15.20
2018-04-22T06:45:39.214Z,15.30
2018-04-22T06:48:07.282Z,15.20
2018-04-22T06:50:35.349Z,15.30
2018-04-22T06:53:03.405Z,15.30
2018-04-22T06:55:32.310Z,15.40
2018-04-22T06:58:00.382Z,15.40
2018-04-22T07:00:28.450Z,15.50
2018-04-22T07:02:56.530Z,15.50
2018-04-22T07:05:24.617Z,15.50
2018-04-22T07:07:52.658Z,15.60
2018-04-22T07:10:20.777Z,15.60
2018-04-22T07:12:49.601Z,15.80
2018-04-22T07:15:17.673Z,15.80
2018-04-22T07:17:45.750Z,15.90
2018-04-22T07:20:13.817Z,16.00
2018-04-22T07:22:41.921Z,16.10
2018-04-22T07:25:09.994Z,16.20
2018-04-22T07:27:38.076Z,16.40
2018-04-22T07:30:06.141Z,16.50
2018-04-22T07:32:34.208Z,16.60
2018-04-22T07:35:02.272Z,16.70
2018-04-22T07:37:31.493Z,16.70
2018-04-22T07:39:59.557Z,16.90
2018-04-22T07:42:27.657Z,17.00
2018-04-22T07:44:55.706Z,17.10
2018-04-22T07:47:23.782Z,17.20
2018-04-22T07:49:51.859Z,17.30
2018-04-22T07:52:19.934Z,17.40
2018-04-22T07:54:47.994Z,17.50
2018-04-22T07:57:16.049Z,17.60
2018-04-22T07:59:47.106Z,17.70
2018-04-22T08:02:15.196Z,17.90
2018-04-22T08:04:43.253Z,18.00
2018-04-22T08:07:11.298Z,18.10
2018-04-22T08:09:39.366Z,18.20
2018-04-22T08:12:07.426Z,18.30
2018-04-22T08:14:35.473Z,18.30
2018-04-22T08:17:03.533Z,18.50
2018-04-22T08:19:31.617Z,18.60
2018-04-22T08:22:00.458Z,18.80
2018-04-22T08:24:28.537Z,18.80
2018-04-22T08:26:56.599Z,18.90
2018-04-22T08:29:24.666Z,18.90
2018-04-22T08:31:52.732Z,19.00
2018-04-22T08:34:20.810Z,19.00
2018-04-22T08:36:48.850Z,19.00
2018-04-22T08:39:16.926Z,19.00
2018-04-22T08:41:45.002Z,19.00
2018-04-22T08:44:13.069Z,19.10
2018-04-22T08:46:41.160Z,19.10
2018-04-22T08:49:09.238Z,19.10
2018-04-22T08:51:37.298Z,19.20
2018-04-22T08:54:05.381Z,19.30
2018-04-22T08:56:33.470Z,19.40
2018-04-22T08:59:01.547Z,19.40
2018-04-22T09:01:30.365Z,19.60
2018-04-22T09:03:58.421Z,19.60
2018-04-22T09:06:26.466Z,19.70
2018-04-22T09:08:54.539Z,19.80
2018-04-22T09:11:22.609Z,19.90
2018-04-22T09:13:50.687Z,19.90
2018-04-22T09:16:23.868Z,20.00
2018-04-22T09:18:51.858Z,20.10
2018-04-22T09:21:19.934Z,20.20
2018-04-22T09:23:48.006Z,20.30
2018-04-22T09:26:16.075Z,20.40
2018-04-22T09:28:44.156Z,20.50
2018-04-22T09:31:12.202Z,20.60
2018-04-22T09:33:40.302Z,20.60
2018-04-22T09:36:08.346Z,20.70
2018-04-22T09:38:36.398Z,20.90
2018-04-22T09:41:04.477Z,21.00
2018-04-22T09:43:32.558Z,21.00
2018-04-22T09:46:00.610Z,21.10
2018-04-22T09:48:33.769Z,21.20
2018-04-22T09:51:01.834Z,21.20
2018-04-22T09:53:29.903Z,21.30
2018-04-22T09:55:57.985Z,21.40
2018-04-22T09:58:26.107Z,21.60
2018-04-22T10:00:59.809Z,21.70
2018-04-22T10:03:30.822Z,21.80
2018-04-22T10:06:01.686Z,21.90
2018-04-22T10:08:42.474Z,22.00
2018-04-22T10:11:10.534Z,22.20
2018-04-22T10:13:38.598Z,22.20
2018-04-22T10:16:06.714Z,22.30
2018-04-22T10:18:34.785Z,22.40
2018-04-22T10:21:06.597Z,22.50
2018-04-22T10:23:34.657Z,22.60
2018-04-22T10:26:03.529Z,22.80
2018-04-22T10:28:31.596Z,22.80
2018-04-22T10:31:06.518Z,22.90
2018-04-22T10:33:34.599Z,22.90
2018-04-22T10:36:02.666Z,22.90
2018-04-22T10:38:30.718Z,23.00
2018-04-22T10:40:58.797Z,23.00
2018-04-22T10:43:26.874Z,23.00
2018-04-22T10:45:54.941Z,23.00
2018-04-22T10:48:23.985Z,23.10
2018-04-22T10:50:52.050Z,23.10
2018-04-22T10:53:20.111Z,23.20
2018-04-22T10:55:48.170Z,23.30
2018-04-22T10:58:16.242Z,23.30
2018-04-22T11:00:44.306Z,23.40
2018-04-22T11:03:12.357Z,23.40
2018-04-22T11:05:40.438Z,23.50
2018-04-22T11:08:08.514Z,23.60
2018-04-22T11:10:36.578Z,23.60
2018-04-22T11:13:04.625Z,23.60
2018-04-22T11:15:32.713Z,23.70
2018-04-22T11:18:00.793Z,23.80
2018-04-22T11:20:28.845Z,23.90
2018-04-22T11:22:58.829Z,23.90
2018-04-22T11:25:27.667Z,24.20
2018-04-22T11:27:55.714Z,24.20
2018-04-22T11:30:23.805Z,24.30
2018-04-22T11:32:51.870Z,24.30
2018-04-22T11:35:19.928Z,24.40
2018-04-22T11:37:48.014Z,24.50
2018-04-22T11:40:16.094Z,24.60
2018-04-22T11:42:44.138Z,24.70
2018-04-22T11:45:12.192Z,24.80
2018-04-22T11:47:40.262Z,24.90
2018-04-22T11:50:08.338Z,25.00
2018-04-22T11:52:36.428Z,25.00
2018-04-22T11:55:04.459Z,24.90
2018-04-22T11:57:32.532Z,24.80
2018-04-22T12:00:00.625Z,24.90
2018-04-22T12:02:28.668Z,24.80
2018-04-22T12:04:56.702Z,24.90
2018-04-22T12:07:24.773Z,25.00
2018-04-22T12:09:56.797Z,25.10
2018-04-22T12:12:24.877Z,25.20
2018-04-22T12:14:52.946Z,25.30
2018-04-22T12:17:21.006Z,25.30
2018-04-22T12:19:49.089Z,25.40
2018-04-22T12:22:17.145Z,25.40
2018-04-22T12:24:45.272Z,25.50
2018-04-22T12:27:13.294Z,25.60
2018-04-22T12:29:41.381Z,25.70
2018-04-22T12:32:15.289Z,25.80
2018-04-22T12:34:43.339Z,25.80
2018-04-22T12:37:11.415Z,25.90
2018-04-22T12:39:39.482Z,25.90
2018-04-22T12:42:07.542Z,26.00
2018-04-22T12:44:35.613Z,26.00
2018-04-22T12:47:03.681Z,26.00
2018-04-22T12:49:31.733Z,26.00
2018-04-22T12:52:00.781Z,26.10
2018-04-22T12:54:28.850Z,26.10
2018-04-22T12:56:56.914Z,26.20
2018-04-22T12:59:24.984Z,26.30
2018-04-22T13:01:53.049Z,26.40
2018-04-22T13:04:21.106Z,26.40
2018-04-22T13:06:49.190Z,26.40
2018-04-22T13:09:17.273Z,26.50
2018-04-22T13:12:02.201Z,26.50
2018-04-22T13:14:30.294Z,26.60
2018-04-22T13:16:58.370Z,26.50
2018-04-22T13:19:26.438Z,26.60
2018-04-22T13:21:54.539Z,26.60
2018-04-22T13:24:22.581Z,26.60
2018-04-22T13:26:50.666Z,26.60
2018-04-22T13:29:18.725Z,26.60
2018-04-22T13:31:46.797Z,26.60
2018-04-22T13:34:14.890Z,26.60
2018-04-22T13:36:42.994Z,26.60
2018-04-22T13:39:11.085Z,26.60
2018-04-22T13:41:43.127Z,26.60
2018-04-22T13:44:11.178Z,26.70
2018-04-22T13:46:39.233Z,26.90
2018-04-22T13:49:07.307Z,27.00
2018-04-22T13:51:35.397Z,27.20
2018-04-22T13:54:03.454Z,27.30
2018-04-22T13:56:31.527Z,27.40
2018-04-22T13:58:59.594Z,27.50
2018-04-22T14:01:33.546Z,27.60
2018-04-22T14:04:01.598Z,27.60
2018-04-22T14:06:29.644Z,27.50
2018-04-22T14:08:57.713Z,27.30
2018-04-22T14:11:25.790Z,27.00
2018-04-22T14:13:53.869Z,26.90
2018-04-22T14:16:21.935Z,26.80
2018-04-22T14:18:50.011Z,26.90
2018-04-22T14:21:18.090Z,27.10
2018-04-22T14:23:46.173Z,27.30
2018-04-22T14:26:15.214Z,27.50
2018-04-22T14:28:43.254Z,27.70
2018-04-22T14:31:11.341Z,27.70
2018-04-22T14:33:40.193Z,27.90
2018-04-22T14:36:08.262Z,27.90
2018-04-22T14:38:36.333Z,27.90
2018-04-22T14:41:04.401Z,27.90
2018-04-22T14:43:32.489Z,27.90
2018-04-22T14:46:19.306Z,27.90
2018-04-22T14:48:59.077Z,27.90
2018-04-22T14:51:27.905Z,27.90
2018-04-22T14:53:56.012Z,27.90
2018-04-22T14:56:24.042Z,27.90
2018-04-22T14:58:52.130Z,28.00
2018-04-22T15:01:20.191Z,28.00
2018-04-22T15:03:48.268Z,28.00
2018-04-22T15:06:16.338Z,28.10
2018-04-22T15:08:49.286Z,28.30
2018-04-22T15:11:18.119Z,28.50
2018-04-22T15:13:46.193Z,28.50
2018-04-22T15:16:14.267Z,28.60
2018-04-22T15:18:42.318Z,28.70
2018-04-22T15:21:11.495Z,28.80
2018-04-22T15:23:40.337Z,29.20
2018-04-22T15:26:08.410Z,29.20
2018-04-22T15:28:36.490Z,29.40
2018-04-22T15:31:04.553Z,29.90
2018-04-22T15:33:32.626Z,30.40
2018-04-22T15:36:00.706Z,30.60
2018-04-22T15:38:28.806Z,30.90
2018-04-22T15:40:56.875Z,31.00
2018-04-22T15:43:28.746Z,30.40
2018-04-22T15:45:57.611Z,29.60
2018-04-22T15:48:25.675Z,29.60
2018-04-22T15:50:53.743Z,29.20
2018-04-22T15:53:22.573Z,28.50
2018-04-22T15:55:50.634Z,28.40
2018-04-22T15:58:18.722Z,28.30
2018-04-22T16:00:46.766Z,28.20
2018-04-22T16:03:14.858Z,28.00
2018-04-22T16:05:42.934Z,28.00
2018-04-22T16:08:11.791Z,27.90
2018-04-22T16:10:39.986Z,27.90
2018-04-22T16:13:08.066Z,27.90
2018-04-22T16:15:36.134Z,27.90
2018-04-22T16:18:04.207Z,27.80
2018-04-22T16:20:32.281Z,27.80
2018-04-22T16:23:00.325Z,27.80
2018-04-22T16:25:28.374Z,27.70
2018-04-22T16:27:56.455Z,27.60
2018-04-22T16:30:24.530Z,27.60
2018-04-22T16:32:52.574Z,27.60
2018-04-22T16:35:29.627Z,27.70
2018-04-22T16:37:57.653Z,27.70
2018-04-22T16:40:25.725Z,27.70
2018-04-22T16:42:53.797Z,27.70
2018-04-22T16:45:26.809Z,27.80
2018-04-22T16:47:54.901Z,27.80
2018-04-22T16:50:22.969Z,27.90
2018-04-22T16:52:51.010Z,28.00
2018-04-22T16:55:19.102Z,28.30
2018-04-22T16:57:47.170Z,29.10
2018-04-22T17:00:15.261Z,30.10
2018-04-22T17:02:43.333Z,30.80
2018-04-22T17:05:11.406Z,31.30
2018-04-22T17:07:45.343Z,31.60
2018-04-22T17:10:13.419Z,31.60
2018-04-22T17:12:41.482Z,31.20
2018-04-22T17:15:10.334Z,30.60
2018-04-22T17:17:38.402Z,30.60
2018-04-22T17:20:06.450Z,30.00
2018-04-22T17:22:34.533Z,29.40
2018-04-22T17:25:02.586Z,28.80
2018-04-22T17:27:30.622Z,28.20
2018-04-22T17:29:58.681Z,27.70
2018-04-22T17:32:26.745Z,27.30
2018-04-22T17:34:54.813Z,26.90
2018-04-22T17:37:22.890Z,26.50
2018-04-22T17:39:50.933Z,26.30
2018-04-22T17:42:18.998Z,26.00
2018-04-22T17:44:47.093Z,26.00
2018-04-22T17:47:15.935Z,25.60
2018-04-22T17:49:43.990Z,25.50
2018-04-22T17:52:12.838Z,25.30
2018-04-22T17:54:41.664Z,25.20
2018-04-22T17:57:09.748Z,25.20
2018-04-22T17:59:37.786Z,25.10
2018-04-22T18:02:07.565Z,25.00
2018-04-22T18:04:35.713Z,24.80
2018-04-22T18:07:03.798Z,24.70
2018-04-22T18:09:31.911Z,24.60
2018-04-22T18:11:59.973Z,24.50
2018-04-22T18:14:28.864Z,24.30
2018-04-22T18:16:56.873Z,24.30
2018-04-22T18:19:24.943Z,24.30
2018-04-22T18:21:53.033Z,24.20
2018-04-22T18:24:21.093Z,24.10
2018-04-22T18:26:49.170Z,24.00
2018-04-22T18:29:17.242Z,24.00
2018-04-22T18:31:45.315Z,23.90
2018-04-22T18:34:14.133Z,23.90
2018-04-22T18:36:42.193Z,23.90
2018-04-22T18:39:10.262Z,23.90
2018-04-22T18:41:38.314Z,23.80
2018-04-22T18:44:06.436Z,23.70
2018-04-22T18:46:34.489Z,23.70
2018-04-22T18:49:02.566Z,23.60
2018-04-22T18:51:30.660Z,23.50
2018-04-22T18:53:59.133Z,23.50
2018-04-22T18:56:27.348Z,23.50
2018-04-22T18:58:55.410Z,23.50
2018-04-22T19:01:23.482Z,23.40
2018-04-22T19:03:51.543Z,23.40
2018-04-22T19:06:19.624Z,23.40
2018-04-22T19:08:47.706Z,23.30
2018-04-22T19:11:15.829Z,23.20
2018-04-22T19:13:43.872Z,23.20
2018-04-22T19:16:11.917Z,23.10
2018-04-22T19:18:39.972Z,23.00
2018-04-22T19:21:08.098Z,22.90
2018-04-22T19:23:36.169Z,22.80
2018-04-22T19:26:04.242Z,22.80
2018-04-22T19:28:32.352Z,22.80
2018-04-22T19:31:00.441Z,22.70
2018-04-22T19:33:29.261Z,22.70
2018-04-22T19:35:57.339Z,22.70
2018-04-22T19:38:25.405Z,22.60
2018-04-22T19:40:53.454Z,22.60
2018-04-22T19:43:22.481Z,22.50
2018-04-22T19:45:50.549Z,22.50
2018-04-22T19:48:19.387Z,22.40
2018-04-22T19:50:47.474Z,22.40
2018-04-22T19:53:15.549Z,22.40
2018-04-22T19:55:43.616Z,22.30
2018-04-22T19:58:11.705Z,22.30
2018-04-22T20:00:39.782Z,22.30
2018-04-22T20:03:08.876Z,22.30
2018-04-22T20:05:36.961Z,22.30
2018-04-22T20:08:05.055Z,22.30
2018-04-22T20:10:33.890Z,22.20
2018-04-22T20:13:01.943Z,22.20
2018-04-22T20:15:30.031Z,22.20
2018-04-22T20:17:58.109Z,22.20
2018-04-22T20:20:26.161Z,22.10
2018-04-22T20:22:54.405Z,22.10
2018-04-22T20:25:23.269Z,22.10
2018-04-22T20:27:51.320Z,22.10
2018-04-22T20:30:19.362Z,22.10
2018-04-22T20:32:47.413Z,22.00
2018-04-22T20:35:16.246Z,22.00
2018-04-22T20:37:44.346Z,22.00
2018-04-22T20:40:12.398Z,22.00
2018-04-22T20:42:40.480Z,22.00
2018-04-22T20:45:08.534Z,22.00
2018-04-22T20:47:36.577Z,21.90
2018-04-22T20:50:04.650Z,21.90
2018-04-22T20:52:32.706Z,21.90
2018-04-22T20:55:01.573Z,21.90
2018-04-22T20:57:29.656Z,21.90
2018-04-22T20:59:57.722Z,21.80
2018-04-22T21:02:25.798Z,21.80
2018-04-22T21:04:53.890Z,21.70
2018-04-22T21:07:21.950Z,21.60
2018-04-22T21:09:50.022Z,21.60
2018-04-22T21:12:18.097Z,21.60
2018-04-22T21:14:46.165Z,21.60
2018-04-22T21:17:14.237Z,21.60
2018-04-22T21:19:42.310Z,21.60
2018-04-22T21:22:10.386Z,21.50
2018-04-22T21:24:38.475Z,21.50
2018-04-22T21:27:06.549Z,21.50
2018-04-22T21:29:34.613Z,21.50
2018-04-22T21:32:02.678Z,21.40
2018-04-22T21:34:30.762Z,21.40
2018-04-22T21:36:58.889Z,21.40
2018-04-22T21:39:26.925Z,21.30
2018-04-22T21:41:54.991Z,21.30
2018-04-22T21:44:23.048Z,21.30
2018-04-22T21:46:51.873Z,21.20
2018-04-22T21:49:20.022Z,21.20
2018-04-22T21:51:48.062Z,21.20
2018-04-22T21:54:16.122Z,21.10
2018-04-22T21:56:44.189Z,21.00
2018-04-22T21:59:12.265Z,21.00
2018-04-22T22:01:40.314Z,21.00
2018-04-22T22:04:08.394Z,20.90
2018-04-22T22:06:36.467Z,20.90
2018-04-22T22:09:04.536Z,20.90
2018-04-22T22:11:32.618Z,20.80
2018-04-22T22:14:00.689Z,20.80
2018-04-22T22:16:28.769Z,20.80
2018-04-22T22:18:56.834Z,20.80
2018-04-22T22:21:24.906Z,20.80
2018-04-22T22:23:52.982Z,20.80
2018-04-22T22:26:21.022Z,20.80
2018-04-22T22:28:49.077Z,20.80
2018-04-22T22:31:17.149Z,20.80
2018-04-22T22:33:45.222Z,20.70
2018-04-22T22:36:13.286Z,20.70
2018-04-22T22:38:42.118Z,20.60
2018-04-22T22:41:10.165Z,20.50
2018-04-22T22:43:38.232Z,20.50
2018-04-22T22:46:06.293Z,20.40
2018-04-22T22:48:34.366Z,20.30
2018-04-22T22:51:03.230Z,20.20
2018-04-22T22:53:31.281Z,20.20
2018-04-22T22:55:59.324Z,20.20
2018-04-22T22:58:27.398Z,20.20
2018-04-22T23:00:55.470Z,20.10
2018-04-22T23:03:23.532Z,20.10
2018-04-22T23:05:51.586Z,20.00
2018-04-22T23:08:20.434Z,19.90
2018-04-22T23:10:48.515Z,19.90
2018-04-22T23:13:16.574Z,19.80
2018-04-22T23:15:44.667Z,19.80
2018-04-22T23:18:12.721Z,19.80
2018-04-22T23:20:40.776Z,19.70
2018-04-22T23:23:08.873Z,19.70
2018-04-22T23:25:36.950Z,19.60
2018-04-22T23:28:05.026Z,19.60
2018-04-22T23:30:33.090Z,19.60
2018-04-22T23:33:01.142Z,19.50
2018-04-22T23:35:29.181Z,19.50
2018-04-22T23:37:57.262Z,19.50
2018-04-22T23:40:25.306Z,19.40
2018-04-22T23:42:53.370Z,19.30
2018-04-22T23:45:21.434Z,19.30
2018-04-22T23:47:49.508Z,19.20
2018-04-22T23:50:17.566Z,19.20
2018-04-22T23:52:45.643Z,19.10
2018-04-22T23:55:13.713Z,19.10
2018-04-22T23:57:41.783Z,19.00
